Time;durP1;ratioP1;P1;durP2;ratioP2;P2;SDS_P1;SDS_P2;PMS_P1;PMS_P2;Temp;Humidity;BMP_temperature;BMP_pressure;BME280_temperature;BME280_humidity;BME280_pressure;Samples;Min_cycle;Max_cycle;Signal;HPM_P1;HPM_P2
2022/11/02 00:01:27;;;;;;;8.10;2.70;;;12.30;99.90;;;;;;5030004;28;20159;-70
2022/11/02 00:03:53;;;;;;;16.95;2.30;;;12.30;99.90;;;;;;5044824;28;20072;-70
2022/11/02 00:06:18;;;;;;;12.02;2.67;;;12.20;99.90;;;;;;5017444;28;20076;-71
2022/11/02 00:08:44;;;;;;;10.02;2.50;;;12.20;99.90;;;;;;5022866;28;20057;-70
2022/11/02 00:11:10;;;;;;;13.30;3.08;;;12.20;99.90;;;;;;5038373;28;20042;-70
2022/11/02 00:13:36;;;;;;;15.18;3.30;;;12.30;99.90;;;;;;5025915;28;20503;-70
2022/11/02 00:16:09;;;;;;;12.15;3.83;;;12.30;99.90;;;;;;5028224;28;20069;-70
2022/11/02 00:18:36;;;;;;;12.60;3.03;;;12.30;99.90;;;;;;5035195;28;20048;-70
2022/11/02 00:21:03;;;;;;;12.50;3.35;;;12.20;99.90;;;;;;5028098;28;20049;-70
2022/11/02 00:23:29;;;;;;;14.77;2.78;;;12.00;99.90;;;;;;5026064;28;20552;-70
2022/11/02 00:25:56;;;;;;;18.58;2.67;;;11.80;99.90;;;;;;5041863;28;20053;-70
2022/11/02 00:28:22;;;;;;;14.60;2.35;;;11.60;99.90;;;;;;5011860;28;20049;-70
2022/11/02 00:30:48;;;;;;;13.63;3.22;;;11.50;99.90;;;;;;5043185;28;20052;-70
2022/11/02 00:33:13;;;;;;;11.30;2.90;;;11.40;99.90;;;;;;5047158;28;20052;-70
2022/11/02 00:35:40;;;;;;;12.60;2.10;;;11.30;99.90;;;;;;5036846;28;20053;-70
2022/11/02 00:38:05;;;;;;;16.95;2.97;;;11.20;99.90;;;;;;5011568;28;20126;-70
2022/11/02 00:40:31;;;;;;;8.43;2.10;;;11.00;99.90;;;;;;5028817;28;20555;-70
2022/11/02 00:42:57;;;;;;;11.95;2.45;;;11.10;99.90;;;;;;5030871;28;20049;-70
2022/11/02 00:45:22;;;;;;;9.93;2.65;;;11.00;99.90;;;;;;5046874;28;20037;-70
2022/11/02 00:47:49;;;;;;;11.65;2.40;;;11.00;99.90;;;;;;5012278;28;20061;-70
2022/11/02 00:50:15;;;;;;;10.43;2.60;;;11.00;99.90;;;;;;5027057;28;20162;-69
2022/11/02 00:52:41;;;;;;;10.63;2.25;;;10.90;99.90;;;;;;5009349;28;20049;-70
2022/11/02 00:55:09;;;;;;;11.00;2.85;;;10.90;99.90;;;;;;5010481;28;20051;-70
2022/11/02 00:57:35;;;;;;;9.85;2.80;;;10.80;99.90;;;;;;4993642;28;20041;-69
2022/11/02 01:00:01;;;;;;;10.02;2.22;;;10.90;99.90;;;;;;5027505;28;20060;-69
2022/11/02 01:02:27;;;;;;;10.75;2.53;;;10.80;99.90;;;;;;5028547;28;20483;-70
2022/11/02 01:04:52;;;;;;;14.27;4.20;;;10.70;99.90;;;;;;5047759;28;20117;-70
2022/11/02 01:07:18;;;;;;;13.38;3.63;;;10.70;99.90;;;;;;5013895;28;20407;-70
2022/11/02 01:09:44;;;;;;;6.75;2.65;;;10.70;99.90;;;;;;5044675;28;20056;-70
2022/11/02 01:12:09;;;;;;;12.65;2.95;;;10.60;99.90;;;;;;5028961;28;20045;-69
2022/11/02 01:14:36;;;;;;;9.65;2.10;;;10.80;99.90;;;;;;5009505;28;20129;-70
2022/11/02 01:17:03;;;;;;;7.93;1.55;;;10.70;99.90;;;;;;5017465;28;20103;-70
2022/11/02 01:19:29;;;;;;;8.33;2.00;;;10.70;99.90;;;;;;5037674;28;20046;-70
2022/11/02 01:21:55;;;;;;;7.40;1.65;;;10.70;99.90;;;;;;5028898;28;20099;-70
2022/11/02 01:24:20;;;;;;;9.35;1.65;;;10.70;99.90;;;;;;5034272;28;20091;-70
2022/11/02 01:26:51;;;;;;;6.00;1.63;;;10.70;99.90;;;;;;5012879;28;20045;-69
2022/11/02 01:29:17;;;;;;;5.53;1.40;;;10.70;99.90;;;;;;5025344;28;20038;-70
2022/11/02 01:31:43;;;;;;;5.07;1.20;;;10.70;99.90;;;;;;5027386;28;20443;-70
2022/11/02 01:34:10;;;;;;;6.00;1.30;;;10.60;99.90;;;;;;5025025;28;20056;-70
2022/11/02 01:36:36;;;;;;;2.70;1.27;;;10.60;99.90;;;;;;5034143;28;20632;-69
2022/11/02 01:39:02;;;;;;;6.07;1.50;;;10.50;99.90;;;;;;5044731;28;20280;-70
2022/11/02 01:41:27;;;;;;;6.70;1.30;;;10.50;99.90;;;;;;5039297;28;20041;-70
2022/11/02 01:43:57;;;;;;;5.27;1.10;;;10.50;99.90;;;;;;5017827;28;20045;-70
2022/11/02 01:46:45;;;;;;;5.47;1.13;;;10.50;99.90;;;;;;5034599;28;20049;-70
2022/11/02 01:49:17;;;;;;;6.47;1.00;;;10.60;99.90;;;;;;5048554;28;20123;-70
2022/11/02 01:52:14;;;;;;;4.67;1.10;;;10.60;99.90;;;;;;5042337;28;20101;-70
2022/11/02 01:55:00;;;;;;;4.90;1.07;;;10.60;99.90;;;;;;5045591;28;20087;-69
2022/11/02 01:57:27;;;;;;;4.70;1.20;;;10.60;99.90;;;;;;5032990;28;20043;-70
2022/11/02 01:59:59;;;;;;;7.77;1.30;;;10.60;99.90;;;;;;5049597;28;20055;-70
2022/11/02 02:02:27;;;;;;;5.90;1.20;;;10.70;99.90;;;;;;5033451;28;20138;-69
2022/11/02 02:05:04;;;;;;;6.53;1.50;;;10.70;99.90;;;;;;5029951;28;20128;-70
2022/11/02 02:07:31;;;;;;;7.00;1.20;;;10.70;99.90;;;;;;5016898;28;20044;-70
2022/11/02 02:09:57;;;;;;;5.40;0.93;;;10.50;99.90;;;;;;5049044;28;20049;-70
2022/11/02 02:12:23;;;;;;;6.30;1.13;;;10.40;99.90;;;;;;5030949;28;20052;-70
2022/11/02 02:14:49;;;;;;;2.70;0.60;;;10.40;99.90;;;;;;5029023;28;20744;-70
2022/11/02 02:17:34;;;;;;;4.27;0.67;;;10.30;99.90;;;;;;5013257;28;20057;-70
2022/11/02 02:20:14;;;;;;;2.40;0.50;;;10.20;99.90;;;;;;5036961;28;20166;-70
2022/11/02 02:23:18;;;;;;;4.00;0.57;;;10.10;99.90;;;;;;5028709;28;20128;-70
2022/11/02 02:26:09;;;;;;;2.27;0.40;;;10.00;99.90;;;;;;5043171;28;20056;-69
2022/11/02 02:28:50;;;;;;;2.77;0.30;;;10.00;99.90;;;;;;5040659;28;20049;-70
2022/11/02 02:31:30;;;;;;;5.07;0.60;;;9.90;99.90;;;;;;5035007;28;20140;-70
2022/11/02 02:34:05;;;;;;;2.37;0.60;;;9.90;99.90;;;;;;5038416;28;20056;-70
2022/11/02 02:36:42;;;;;;;4.03;1.10;;;9.80;99.90;;;;;;5034931;28;20130;-71
2022/11/02 02:39:13;;;;;;;5.57;1.50;;;9.90;99.90;;;;;;5035248;28;20061;-70
2022/11/02 02:41:46;;;;;;;5.43;2.13;;;9.90;99.90;;;;;;5028963;28;20566;-69
2022/11/02 02:44:22;;;;;;;5.40;2.80;;;10.00;99.90;;;;;;5039310;28;20497;-70
2022/11/02 02:46:57;;;;;;;11.80;3.10;;;10.00;99.90;;;;;;5013786;28;20056;-70
2022/11/02 02:49:36;;;;;;;7.97;3.10;;;10.00;99.90;;;;;;5027580;28;20065;-70
2022/11/02 02:52:03;;;;;;;7.20;3.00;;;10.10;99.90;;;;;;5029087;28;20522;-70
2022/11/02 02:54:34;;;;;;;10.27;2.73;;;10.10;99.90;;;;;;5044214;28;20127;-70
2022/11/02 02:57:06;;;;;;;10.02;3.20;;;10.10;99.90;;;;;;5022897;28;20436;-70
2022/11/02 02:59:38;;;;;;;7.87;2.83;;;10.20;99.90;;;;;;5031550;28;20056;-70
2022/11/02 03:02:06;;;;;;;6.70;2.60;;;10.20;99.90;;;;;;5048325;28;20455;-70
2022/11/02 03:04:32;;;;;;;9.70;2.80;;;10.30;99.90;;;;;;5047445;28;20044;-70
2022/11/02 03:07:00;;;;;;;6.50;1.93;;;10.30;99.90;;;;;;5000317;28;20060;-70
2022/11/02 03:09:25;;;;;;;6.87;1.83;;;10.30;99.90;;;;;;5047362;28;20049;-70
2022/11/02 03:12:11;;;;;;;9.40;1.90;;;10.30;99.90;;;;;;5034513;28;20056;-70
2022/11/02 03:14:51;;;;;;;4.57;1.60;;;10.30;99.90;;;;;;5027266;28;20057;-70
2022/11/02 03:17:23;;;;;;;6.72;1.52;;;10.30;99.90;;;;;;5017715;28;20117;-69
2022/11/02 03:19:51;;;;;;;5.90;1.63;;;10.30;99.90;;;;;;5047626;28;20463;-70
2022/11/02 03:22:28;;;;;;;7.17;1.33;;;10.20;99.90;;;;;;5010730;28;20049;-70
2022/11/02 03:25:15;;;;;;;7.67;1.30;;;10.30;99.90;;;;;;5040356;28;20041;-70
2022/11/02 03:27:53;;;;;;;6.23;1.10;;;10.30;99.90;;;;;;5012202;28;20531;-70
2022/11/02 03:30:21;;;;;;;8.97;1.20;;;10.20;99.90;;;;;;5027990;28;20045;-70
2022/11/02 03:33:29;;;;;;;6.30;1.07;;;10.20;99.90;;;;;;5033113;28;20504;-69
2022/11/02 03:36:05;;;;;;;5.50;0.90;;;10.10;99.90;;;;;;5039373;28;20100;-69
2022/11/02 03:38:43;;;;;;;8.17;1.30;;;10.00;99.90;;;;;;5009012;28;20057;-70
2022/11/02 03:41:10;;;;;;;5.53;1.17;;;10.10;99.90;;;;;;5011041;28;20041;-70
2022/11/02 03:43:40;;;;;;;4.77;1.00;;;10.00;99.90;;;;;;5019771;28;20061;-70
2022/11/02 03:46:07;;;;;;;8.50;1.43;;;10.10;99.90;;;;;;5030824;28;20048;-69
2022/11/02 03:48:43;;;;;;;6.53;1.53;;;10.00;99.90;;;;;;5032352;28;20084;-69
2022/11/02 03:51:13;;;;;;;5.83;1.40;;;10.00;99.90;;;;;;5043066;28;20055;-69
2022/11/02 03:54:07;;;;;;;9.47;1.60;;;10.20;99.90;;;;;;5046343;28;20053;-70
2022/11/02 03:56:48;;;;;;;11.73;1.60;;;9.90;99.90;;;;;;5032580;28;20068;-70
2022/11/02 03:59:14;;;;;;;10.68;1.58;;;9.90;99.90;;;;;;5047019;28;20484;-69
2022/11/02 04:01:43;;;;;;;8.43;1.30;;;9.90;99.90;;;;;;5046917;28;20111;-70
2022/11/02 04:04:10;;;;;;;8.73;1.83;;;10.00;99.90;;;;;;5030547;28;20052;-70
2022/11/02 04:06:37;;;;;;;8.17;1.53;;;10.00;99.90;;;;;;5014829;28;20820;-70
2022/11/02 04:09:03;;;;;;;10.43;1.80;;;10.00;99.90;;;;;;5026467;28;20060;-70
2022/11/02 04:19:42;;;;;;;15.03;2.53;;;10.20;99.90;;;;;;5026304;28;20167;-70
2022/11/02 04:27:37;;;;;;;10.10;2.23;;;10.20;99.90;;;;;;5011045;28;20043;-70
2022/11/02 04:30:03;;;;;;;13.70;2.27;;;10.20;99.90;;;;;;5030660;28;20036;-69
2022/11/02 04:35:13;;;;;;;10.90;2.30;;;10.30;99.90;;;;;;5042415;28;20087;-69
2022/11/02 04:40:24;;;;;;;12.37;2.17;;;10.30;99.90;;;;;;5043860;28;20060;-69
2022/11/02 04:42:50;;;;;;;12.43;2.27;;;10.20;99.90;;;;;;5040746;28;20148;-70
2022/11/02 04:45:16;;;;;;;20.03;3.73;;;10.20;99.90;;;;;;5038954;28;20196;-70
2022/11/02 04:47:42;;;;;;;16.03;2.60;;;10.30;99.90;;;;;;5023531;28;20107;-70
2022/11/02 04:50:08;;;;;;;14.77;2.53;;;10.00;99.90;;;;;;5046770;28;20408;-70
2022/11/02 04:52:33;;;;;;;11.73;3.27;;;10.10;99.90;;;;;;5046915;28;20041;-69
2022/11/02 04:54:59;;;;;;;13.40;4.50;;;10.10;99.90;;;;;;5046560;28;20504;-70
2022/11/02 04:57:24;;;;;;;16.77;5.67;;;10.10;99.90;;;;;;5029907;28;20053;-70
2022/11/02 04:59:50;;;;;;;9.80;2.50;;;10.10;99.90;;;;;;5046508;28;20102;-70
2022/11/02 05:02:16;;;;;;;10.57;2.63;;;10.20;99.90;;;;;;5028865;28;20052;-70
2022/11/02 05:04:41;;;;;;;13.47;2.83;;;10.00;99.90;;;;;;5038820;28;20049;-69
2022/11/02 05:07:09;;;;;;;14.70;2.60;;;10.00;99.90;;;;;;5010395;28;20046;-70
2022/11/02 05:09:35;;;;;;;11.30;1.77;;;10.10;99.90;;;;;;5037970;28;20637;-70
2022/11/02 05:12:03;;;;;;;9.60;2.33;;;10.10;99.90;;;;;;5031945;28;20050;-71
2022/11/02 05:14:30;;;;;;;11.87;2.70;;;10.00;99.90;;;;;;5014077;28;20057;-69
2022/11/02 05:16:56;;;;;;;13.13;2.77;;;10.10;99.90;;;;;;5027832;28;20189;-70
2022/11/02 05:19:22;;;;;;;12.73;3.10;;;10.20;99.90;;;;;;5045077;28;20554;-69
2022/11/02 05:21:48;;;;;;;15.60;3.37;;;10.10;99.90;;;;;;5047556;28;20231;-70
2022/11/02 05:24:13;;;;;;;11.30;2.63;;;10.00;99.90;;;;;;5046947;28;20098;-69
2022/11/02 05:26:39;;;;;;;10.37;2.83;;;10.10;99.90;;;;;;5021657;28;20131;-69
2022/11/02 05:29:05;;;;;;;11.97;2.77;;;10.00;99.90;;;;;;5036460;28;20040;-69
2022/11/02 05:31:30;;;;;;;13.27;2.60;;;10.00;99.90;;;;;;5051497;28;20115;-69
2022/11/02 05:33:56;;;;;;;13.20;2.57;;;10.10;99.90;;;;;;5044522;28;20509;-69
2022/11/02 05:36:22;;;;;;;9.43;2.27;;;10.00;99.90;;;;;;5019491;28;20378;-70
2022/11/02 05:38:52;;;;;;;9.47;2.30;;;10.10;99.90;;;;;;5027668;28;20049;-69
2022/11/02 05:41:17;;;;;;;10.67;2.77;;;10.20;99.90;;;;;;5046690;28;20091;-69
2022/11/02 05:43:43;;;;;;;10.47;2.77;;;10.10;99.90;;;;;;5032677;28;20049;-70
2022/11/02 05:46:08;;;;;;;13.00;2.90;;;10.10;99.90;;;;;;5035283;28;20060;-70
2022/11/02 05:48:34;;;;;;;13.60;3.00;;;10.10;99.90;;;;;;5021496;28;20072;-69
2022/11/02 05:51:02;;;;;;;14.80;3.17;;;10.10;99.90;;;;;;5050783;28;20060;-69
2022/11/02 05:53:32;;;;;;;14.97;3.20;;;10.10;99.90;;;;;;5065256;28;20679;-70
2022/11/02 05:56:00;;;;;;;9.70;3.40;;;10.10;99.90;;;;;;5044311;28;20492;-69
2022/11/02 05:58:27;;;;;;;9.13;3.07;;;10.30;99.90;;;;;;5020202;28;20050;-70
2022/11/02 06:00:52;;;;;;;16.97;3.17;;;10.30;99.90;;;;;;5043690;28;20519;-69
2022/11/02 06:03:19;;;;;;;14.37;3.50;;;10.20;99.90;;;;;;5047050;28;20045;-70
2022/11/02 06:05:44;;;;;;;13.17;3.03;;;10.30;99.90;;;;;;5047414;28;20106;-70
2022/11/02 06:08:10;;;;;;;11.70;3.20;;;10.20;99.90;;;;;;5032734;28;20045;-70
2022/11/02 06:10:36;;;;;;;17.13;3.30;;;10.30;99.90;;;;;;5045464;28;20136;-70
2022/11/02 06:13:02;;;;;;;14.57;3.23;;;10.30;99.90;;;;;;5048444;28;20079;-69
2022/11/02 06:15:30;;;;;;;16.33;3.50;;;10.30;99.90;;;;;;5049177;28;20089;-70
2022/11/02 06:17:56;;;;;;;14.23;3.17;;;10.30;99.90;;;;;;5034046;28;20083;-70
2022/11/02 06:20:22;;;;;;;11.87;2.87;;;10.30;99.90;;;;;;5046489;28;20081;-70
2022/11/02 06:22:48;;;;;;;18.63;3.57;;;10.30;99.90;;;;;;5028802;28;20077;-70
2022/11/02 06:25:15;;;;;;;15.10;3.30;;;10.30;99.90;;;;;;5041027;28;20129;-70
2022/11/02 06:27:40;;;;;;;23.43;4.20;;;10.20;99.90;;;;;;5014365;28;20128;-70
2022/11/02 06:30:07;;;;;;;16.73;3.83;;;10.20;99.90;;;;;;5042360;28;20132;-70
2022/11/02 06:32:33;;;;;;;22.80;3.80;;;10.20;99.90;;;;;;5028923;28;20049;-70
2022/11/02 06:34:59;;;;;;;18.17;3.57;;;10.10;99.90;;;;;;5033375;28;20056;-72
2022/11/02 06:37:24;;;;;;;16.30;3.70;;;10.20;99.90;;;;;;5032980;28;20420;-71
2022/11/02 06:39:50;;;;;;;22.43;4.30;;;10.40;99.90;;;;;;5048675;28;20049;-70
2022/11/02 06:42:16;;;;;;;25.30;4.40;;;10.20;99.90;;;;;;5031417;28;20074;-70
2022/11/02 06:44:41;;;;;;;22.77;4.30;;;10.20;99.90;;;;;;5047252;28;20491;-71
2022/11/02 06:47:07;;;;;;;23.57;3.80;;;10.30;99.90;;;;;;5021157;28;20064;-70
2022/11/02 06:49:33;;;;;;;21.40;3.93;;;10.10;99.90;;;;;;5028863;28;20049;-71
2022/11/02 06:51:58;;;;;;;16.30;2.67;;;10.10;99.90;;;;;;5039410;28;20048;-71
2022/11/02 06:54:24;;;;;;;11.87;2.47;;;10.20;99.90;;;;;;5048828;28;20427;-71
2022/11/02 06:56:50;;;;;;;13.90;2.30;;;10.10;99.90;;;;;;5035101;28;20488;-70
2022/11/02 06:59:15;;;;;;;18.80;2.77;;;10.20;99.90;;;;;;5030770;28;20045;-70
2022/11/02 07:01:41;;;;;;;13.03;2.80;;;10.30;99.90;;;;;;5048652;28;20079;-71
2022/11/02 07:04:07;;;;;;;15.83;2.20;;;10.50;99.90;;;;;;5048890;28;20048;-71
2022/11/02 07:06:33;;;;;;;14.30;2.70;;;10.30;99.90;;;;;;5034216;28;20136;-71
2022/11/02 07:08:58;;;;;;;14.10;3.03;;;10.30;99.90;;;;;;5028907;28;20041;-71
2022/11/02 07:11:24;;;;;;;20.87;2.53;;;10.30;99.90;;;;;;5039986;28;20049;-71
2022/11/02 07:13:50;;;;;;;19.57;3.23;;;10.40;99.90;;;;;;5030679;28;20071;-71
2022/11/02 07:16:15;;;;;;;12.90;2.30;;;10.30;99.90;;;;;;5039956;28;20057;-71
2022/11/02 07:18:41;;;;;;;12.93;2.33;;;10.30;99.90;;;;;;5029360;28;20136;-70
2022/11/02 07:21:09;;;;;;;12.60;2.10;;;10.30;99.90;;;;;;5038139;28;20072;-70
2022/11/02 07:23:35;;;;;;;14.40;2.50;;;10.30;99.90;;;;;;5028800;28;20136;-71
2022/11/02 07:26:01;;;;;;;10.93;2.03;;;10.20;99.90;;;;;;5030778;28;20131;-70
2022/11/02 07:28:27;;;;;;;7.50;1.70;;;10.20;99.90;;;;;;5018405;28;20076;-71
2022/11/02 07:30:53;;;;;;;10.43;1.77;;;10.10;99.90;;;;;;5039062;28;20076;-71
2022/11/02 07:33:19;;;;;;;12.87;1.90;;;10.20;99.90;;;;;;5036242;28;20049;-71
2022/11/02 07:35:45;;;;;;;11.50;1.80;;;10.20;99.90;;;;;;5038555;28;20683;-71
2022/11/02 07:38:10;;;;;;;11.43;1.90;;;10.20;99.90;;;;;;5024282;28;20095;-71
2022/11/02 07:40:37;;;;;;;10.30;2.00;;;10.30;99.90;;;;;;5040045;28;20119;-71
2022/11/02 07:43:04;;;;;;;11.43;2.03;;;10.20;99.90;;;;;;5044253;28;20049;-70
2022/11/02 07:45:30;;;;;;;13.13;2.03;;;10.20;99.90;;;;;;5041380;28;20041;-70
2022/11/02 07:47:56;;;;;;;10.73;2.13;;;10.20;99.90;;;;;;5021328;28;20507;-70
2022/11/02 07:50:23;;;;;;;10.37;2.10;;;10.20;99.90;;;;;;5039618;28;20048;-70
2022/11/02 07:52:54;;;;;;;11.10;2.07;;;10.20;99.90;;;;;;5034855;28;20069;-70
2022/11/02 07:55:25;;;;;;;8.57;1.90;;;10.20;99.90;;;;;;5038140;28;20820;-71
2022/11/02 07:58:20;;;;;;;11.23;1.97;;;10.30;99.90;;;;;;5021091;28;20895;-70
2022/11/02 08:00:45;;;;;;;9.33;2.03;;;10.30;99.90;;;;;;5034445;28;20065;-70
2022/11/02 08:03:11;;;;;;;9.00;1.63;;;10.50;99.90;;;;;;5020832;28;20148;-70
2022/11/02 08:05:39;;;;;;;12.50;1.63;;;10.60;99.90;;;;;;5037880;28;20071;-71
2022/11/02 08:08:07;;;;;;;13.53;1.90;;;10.80;99.90;;;;;;5014816;28;20041;-70
2022/11/02 08:10:34;;;;;;;8.17;2.03;;;10.80;99.90;;;;;;5040097;28;20088;-71
2022/11/02 08:13:00;;;;;;;11.77;2.00;;;10.90;99.90;;;;;;4985936;28;20053;-70
2022/11/02 08:15:26;;;;;;;6.63;1.80;;;10.90;99.90;;;;;;5036342;28;20508;-70
2022/11/02 08:18:03;;;;;;;8.30;1.80;;;10.90;99.90;;;;;;5023975;28;20113;-71
2022/11/02 08:20:29;;;;;;;10.85;1.80;;;10.90;99.90;;;;;;5057923;28;20131;-70
2022/11/02 08:22:55;;;;;;;10.30;2.30;;;11.00;99.90;;;;;;5040705;28;20063;-70
2022/11/02 08:25:23;;;;;;;9.15;2.00;;;11.10;99.90;;;;;;5040157;28;20060;-71
2022/11/02 08:27:49;;;;;;;13.95;2.88;;;11.20;99.90;;;;;;5023525;28;20046;-70
2022/11/02 08:30:14;;;;;;;13.10;2.00;;;11.10;99.90;;;;;;5022917;28;20048;-71
2022/11/02 08:32:40;;;;;;;13.67;2.63;;;11.20;99.90;;;;;;5036354;28;20052;-70
2022/11/02 08:35:06;;;;;;;11.27;1.85;;;11.30;99.90;;;;;;5040343;28;21739;-71
2022/11/02 08:37:32;;;;;;;11.48;2.58;;;11.40;99.90;;;;;;5008240;28;20060;-71
2022/11/02 08:39:57;;;;;;;15.40;2.50;;;11.40;99.90;;;;;;5038154;28;20130;-70
2022/11/02 08:42:23;;;;;;;11.38;2.20;;;11.40;99.90;;;;;;5038061;28;20393;-71
2022/11/02 08:44:49;;;;;;;10.52;1.83;;;11.50;99.90;;;;;;5040399;28;20938;-71
2022/11/02 08:47:16;;;;;;;9.85;2.03;;;11.50;99.90;;;;;;5025013;28;20630;-70
2022/11/02 08:49:42;;;;;;;17.52;2.25;;;11.50;99.90;;;;;;5038430;28;20496;-70
2022/11/02 08:52:07;;;;;;;11.57;2.33;;;11.60;99.90;;;;;;5039513;28;20060;-71
2022/11/02 08:54:33;;;;;;;10.93;2.20;;;11.60;99.90;;;;;;5022505;28;20049;-70
2022/11/02 08:56:59;;;;;;;15.45;2.60;;;11.60;99.90;;;;;;5024775;28;20617;-71
2022/11/02 08:59:24;;;;;;;12.48;2.88;;;11.60;99.90;;;;;;5036645;28;20041;-70
2022/11/02 09:01:50;;;;;;;9.32;2.10;;;11.70;99.90;;;;;;5042737;28;20049;-71
2022/11/02 09:04:16;;;;;;;8.80;1.95;;;11.70;99.90;;;;;;5040740;28;20060;-71
2022/11/02 09:06:41;;;;;;;12.57;2.50;;;11.80;99.90;;;;;;5028401;28;20048;-71
2022/11/02 09:09:07;;;;;;;12.40;2.00;;;11.80;99.90;;;;;;5037465;28;20064;-71
2022/11/02 09:11:33;;;;;;;13.98;2.15;;;11.80;99.90;;;;;;5040214;28;20496;-71
2022/11/02 09:13:58;;;;;;;13.45;2.53;;;12.00;99.90;;;;;;5021395;28;20045;-71
2022/11/02 09:16:24;;;;;;;15.75;2.83;;;12.00;99.90;;;;;;5027332;28;20033;-71
2022/11/02 09:18:50;;;;;;;12.15;2.45;;;12.00;99.90;;;;;;5033381;28;20127;-71
2022/11/02 09:21:15;;;;;;;13.68;2.78;;;11.90;99.90;;;;;;5038300;28;20064;-71
2022/11/02 09:23:41;;;;;;;18.95;2.97;;;12.00;99.90;;;;;;5038700;28;20056;-71
2022/11/02 09:26:07;;;;;;;19.73;2.50;;;12.10;99.90;;;;;;5040549;28;20037;-72
2022/11/02 09:28:32;;;;;;;14.07;2.63;;;12.20;99.90;;;;;;5028737;28;20053;-71
2022/11/02 09:30:58;;;;;;;16.05;2.65;;;12.30;99.90;;;;;;5039863;28;20049;-72
2022/11/02 09:33:24;;;;;;;12.60;2.60;;;12.40;99.90;;;;;;5038291;28;20049;-71
2022/11/02 09:35:49;;;;;;;16.08;3.33;;;12.40;99.90;;;;;;5041036;28;20067;-72
2022/11/02 09:38:17;;;;;;;14.90;3.22;;;12.50;99.90;;;;;;5024375;28;20508;-72
2022/11/02 09:40:49;;;;;;;16.20;2.80;;;12.60;99.90;;;;;;5039387;28;20454;-71
2022/11/02 09:43:49;;;;;;;14.27;2.97;;;12.60;99.90;;;;;;5037423;28;20657;-71
2022/11/02 09:46:20;;;;;;;12.18;2.53;;;12.60;99.90;;;;;;5032063;28;20522;-71
2022/11/02 09:48:51;;;;;;;14.93;2.97;;;12.50;99.90;;;;;;5034094;28;20555;-71
2022/11/02 09:51:22;;;;;;;13.48;3.28;;;12.50;99.90;;;;;;5040558;28;20127;-72
2022/11/02 09:54:04;;;;;;;14.73;3.20;;;12.50;99.90;;;;;;5038090;28;20079;-71
2022/11/02 09:56:30;;;;;;;15.98;2.80;;;12.40;99.90;;;;;;5028728;28;20053;-70
2022/11/02 09:59:00;;;;;;;13.32;2.90;;;12.40;99.90;;;;;;5038073;28;20526;-71
2022/11/02 10:02:01;;;;;;;14.07;2.97;;;12.30;99.90;;;;;;5039051;28;20056;-70
2022/11/02 10:04:56;;;;;;;16.40;2.93;;;12.20;99.90;;;;;;5039967;28;20049;-71
2022/11/02 10:07:53;;;;;;;19.00;3.20;;;12.20;99.90;;;;;;5024687;28;20135;-70
2022/11/02 10:10:33;;;;;;;20.40;3.30;;;12.30;99.90;;;;;;5041500;28;20504;-70
2022/11/02 10:13:25;;;;;;;14.32;2.50;;;12.40;99.90;;;;;;5043850;28;20037;-70
2022/11/02 10:16:12;;;;;;;14.07;2.65;;;12.70;99.90;;;;;;5044688;28;20053;-70
2022/11/02 10:18:40;;;;;;;13.15;2.85;;;12.90;99.90;;;;;;5034471;28;20033;-72
2022/11/02 10:21:12;;;;;;;13.95;2.90;;;13.10;99.90;;;;;;5044483;28;20079;-72
2022/11/02 10:24:10;;;;;;;12.93;2.70;;;13.00;99.90;;;;;;5041754;28;20053;-71
2022/11/02 10:26:42;;;;;;;12.27;2.65;;;13.00;99.90;;;;;;5029052;28;20059;-71
2022/11/02 10:29:34;;;;;;;;;;;13.10;99.90;;;;;;5042393;28;20049;-71
2022/11/02 10:32:01;;;;;;;13.50;2.55;;;13.20;99.90;;;;;;5043311;28;19931;-71
2022/11/02 10:34:28;;;;;;;13.38;2.53;;;13.50;99.90;;;;;;5042681;28;20057;-71
2022/11/02 10:37:12;;;;;;;12.75;2.72;;;13.60;99.90;;;;;;5029429;28;20122;-71
2022/11/02 10:40:05;;;;;;;11.25;2.33;;;13.60;99.90;;;;;;5042795;28;20083;-71
2022/11/02 10:43:07;;;;;;;14.65;2.70;;;13.60;99.90;;;;;;5057607;28;20051;-70
2022/11/02 10:45:53;;;;;;;10.80;2.33;;;13.10;99.90;;;;;;5022100;28;20066;-71
2022/11/02 10:48:45;;;;;;;12.95;2.60;;;12.80;99.90;;;;;;5010533;28;20444;-71
2022/11/02 10:51:12;;;;;;;13.88;3.30;;;12.80;99.90;;;;;;5058792;28;20048;-71
2022/11/02 10:53:47;;;;;;;16.92;2.85;;;12.60;99.90;;;;;;5042320;28;20385;-71
2022/11/02 10:56:20;;;;;;;11.50;2.00;;;12.40;99.90;;;;;;5033782;28;20059;-71
2022/11/02 10:59:09;;;;;;;12.07;2.65;;;12.60;99.90;;;;;;5037310;28;20053;-70
2022/11/02 11:01:35;;;;;;;12.18;2.20;;;12.50;99.90;;;;;;5042401;28;20049;-71
2022/11/02 11:04:17;;;;;;;14.85;3.05;;;12.70;99.90;;;;;;5041957;28;20048;-70
2022/11/02 11:06:43;;;;;;;14.93;2.33;;;12.50;99.90;;;;;;5012910;28;20449;-71
2022/11/02 11:09:14;;;;;;;12.00;2.67;;;12.40;99.90;;;;;;5021493;28;20128;-70
2022/11/02 11:11:45;;;;;;;14.30;2.45;;;12.50;99.90;;;;;;5042403;28;20072;-71
2022/11/02 11:14:20;;;;;;;12.82;2.63;;;12.60;99.90;;;;;;5038735;28;20053;-71
2022/11/02 11:16:52;;;;;;;12.65;2.08;;;12.40;99.90;;;;;;5025191;28;20107;-71
2022/11/02 11:19:38;;;;;;;12.02;2.70;;;12.30;99.90;;;;;;5039522;28;20141;-70
2022/11/02 11:22:22;;;;;;;13.10;2.58;;;12.30;99.90;;;;;;5039126;28;20048;-71
2022/11/02 11:24:48;;;;;;;8.68;2.25;;;12.30;99.90;;;;;;5039744;28;20058;-71
2022/11/02 11:27:19;;;;;;;10.85;2.40;;;12.30;99.90;;;;;;5022291;28;20114;-70
2022/11/02 11:29:57;;;;;;;14.95;2.55;;;12.20;99.90;;;;;;5038947;28;20055;-70
2022/11/02 11:32:27;;;;;;;13.18;2.72;;;12.30;99.90;;;;;;5041982;28;20079;-70
2022/11/02 11:35:05;;;;;;;18.35;2.80;;;12.50;99.90;;;;;;5043456;28;20053;-71
2022/11/02 11:37:32;;;;;;;14.70;2.60;;;12.30;99.90;;;;;;5026352;28;20112;-71
2022/11/02 11:40:17;;;;;;;11.07;2.25;;;12.30;99.90;;;;;;5038094;28;20439;-71
2022/11/02 11:42:43;;;;;;;12.10;2.00;;;12.60;99.90;;;;;;5039856;28;20124;-71
2022/11/02 11:45:24;;;;;;;14.13;2.35;;;12.80;99.90;;;;;;5041982;28;20124;-70
2022/11/02 11:47:56;;;;;;;11.30;1.90;;;13.40;99.90;;;;;;5024400;28;20577;-70
2022/11/02 11:50:22;;;;;;;12.77;2.75;;;13.80;99.90;;;;;;5040556;28;20100;-70
2022/11/02 11:53:12;;;;;;;13.82;2.22;;;14.10;99.90;;;;;;5038692;28;20049;-70
2022/11/02 11:55:50;;;;;;;9.63;1.95;;;14.50;99.90;;;;;;5040462;28;20052;-70
2022/11/02 11:58:21;;;;;;;10.50;2.22;;;14.50;99.90;;;;;;5022792;28;20061;-71
2022/11/02 12:01:25;;;;;;;;;;;14.40;99.90;;;;;;5041228;28;20056;-71
2022/11/02 12:03:56;;;;;;;10.52;2.30;;;14.30;99.90;;;;;;5029212;28;20454;-71
2022/11/02 12:07:05;;;;;;;11.40;2.05;;;14.30;99.90;;;;;;5006151;28;20098;-71
2022/11/02 12:09:56;;;;;;;8.50;2.05;;;14.50;99.90;;;;;;5036418;28;20061;-71
2022/11/02 12:12:47;;;;;;;8.45;1.73;;;14.60;99.90;;;;;;5054218;28;20528;-71
2022/11/02 12:15:50;;;;;;;10.82;1.80;;;14.60;99.90;;;;;;5042003;28;20045;-70
2022/11/02 12:18:21;;;;;;;12.20;2.25;;;14.40;99.90;;;;;;5022943;28;20588;-70
2022/11/02 12:21:08;;;;;;;10.48;2.00;;;14.60;99.90;;;;;;5042660;28;20052;-71
2022/11/02 12:23:52;;;;;;;13.05;2.17;;;14.40;99.90;;;;;;5041489;28;20052;-71
2022/11/02 12:26:24;;;;;;;9.40;2.38;;;14.40;99.90;;;;;;5029739;28;20064;-71
2022/11/02 12:29:30;;;;;;;11.35;2.40;;;14.10;99.90;;;;;;5038127;28;20049;-70
2022/11/02 12:32:02;;;;;;;9.00;1.92;;;13.90;99.90;;;;;;5024067;28;20052;-71
2022/11/02 12:34:30;;;;;;;14.88;2.38;;;13.90;99.90;;;;;;5037487;28;20389;-70
2022/11/02 12:37:35;;;;;;;10.60;2.20;;;13.90;99.90;;;;;;5021567;28;20508;-70
2022/11/02 12:40:19;;;;;;;13.88;2.38;;;13.80;99.90;;;;;;5047201;28;20203;-71
2022/11/02 12:42:55;;;;;;;9.50;2.00;;;13.70;99.90;;;;;;5035762;28;20483;-70
2022/11/02 12:45:25;;;;;;;15.73;2.63;;;13.70;99.90;;;;;;5038411;28;20526;-70
2022/11/02 12:47:58;;;;;;;13.63;2.67;;;13.60;99.90;;;;;;5019595;28;20036;-70
2022/11/02 12:50:41;;;;;;;13.02;2.60;;;13.50;99.90;;;;;;5036886;28;20057;-71
2022/11/02 12:53:34;;;;;;;10.65;2.33;;;13.30;99.90;;;;;;5019177;28;20037;-69
2022/11/02 12:56:03;;;;;;;14.98;2.50;;;13.10;99.90;;;;;;5055034;28;20072;-70
2022/11/02 12:58:33;;;;;;;11.90;2.33;;;13.00;99.90;;;;;;5020553;28;20605;-70
2022/11/02 13:01:29;;;;;;;9.73;2.10;;;13.10;99.90;;;;;;5034902;28;20528;-70
2022/11/02 13:04:10;;;;;;;12.75;2.40;;;13.10;99.90;;;;;;5037162;28;20036;-70
2022/11/02 13:07:02;;;;;;;12.43;2.10;;;13.10;99.90;;;;;;5023046;28;20491;-71
2022/11/02 13:09:33;;;;;;;11.88;2.72;;;13.20;99.90;;;;;;5032600;28;20442;-70
2022/11/02 13:12:01;;;;;;;;;;;13.30;99.90;;;;;;5038466;28;20064;-70
2022/11/02 13:14:37;;;;;;;16.42;2.70;;;13.40;99.90;;;;;;5037436;28;19935;-70
2022/11/02 13:17:10;;;;;;;16.17;2.60;;;13.40;99.90;;;;;;5020629;28;20215;-70
2022/11/02 13:19:46;;;;;;;11.70;2.47;;;13.20;99.90;;;;;;5037860;28;20052;-70
2022/11/02 13:22:13;;;;;;;14.30;2.58;;;13.20;99.90;;;;;;5034982;28;20056;-70